Shinpo Maru — JD3744 — position and weather

sailwx.info

Track history (hours):
 
Tides and Currents Weather Stations Pressure Air Temp Water Temp Dewpoint Dewpoint Depression Visibility Wind Speed Wind Dir Waves Ship Positions

Shinpo Maru

Last reported at 2017-Dec-16 07:52 UTC. Time now 2017-Dec-16 09:19 UTC.
Position N 34°26' E 134°23'.

Length 61 m; draft 4 m.

Type: Cargo ship. MMSI: 431005643.

Date/timePositionNaut miles runAvg speedWind from/ knotsBaromVisibWave heightAir tempDewpointWater temp
2017-Dec-16 07:52N 34°26' E 134°23'511.2
2017-Dec-16 07:26N 34°28' E 134°28'510.7
2017-Dec-16 07:00N 34°29' E 134°33'510.5
2017-Dec-16 06:30N 34°31' E 134°39'510.6
2017-Dec-16 06:00N 34°33' E 134°45'510.6
2017-Dec-16 05:30N 34°35' E 134°51'5 9.6
2017-Dec-16 05:00N 34°37' E 134°57'4 8.5
2017-Dec-16 04:30N 34°37' E 135°02'4 7.9
2017-Dec-16 04:00N 34°36' E 135°07'510.7
2017-Dec-16 03:30N 34°37' E 135°13'510.1
2017-Dec-16 03:00N 34°40' E 135°18'2 4.9
2017-Dec-16 02:30N 34°42' E 135°16'0 0.0
2017-Dec-16 02:00N 34°42' E 135°16'0 0.0
2017-Dec-16 01:30N 34°42' E 135°16'0 0.0
2017-Dec-16 01:00N 34°42' E 135°16'0 0.0
2017-Dec-16 00:30N 34°42' E 135°16'0 0.0
2017-Dec-16 00:00N 34°42' E 135°16'0 0.0
2017-Dec-15 23:30N 34°42' E 135°16'0 0.0
2017-Dec-15 23:00N 34°42' E 135°16'0 0.0
2017-Dec-15 22:30N 34°42' E 135°16'0 0.0
2017-Dec-15 22:00N 34°42' E 135°16'4 7.2
2017-Dec-15 21:30N 34°39' E 135°17'611.5
2017-Dec-15 21:00N 34°36' E 135°11'611.2
2017-Dec-15 20:30N 34°35' E 135°04'4 8.7
2017-Dec-15 20:00N 34°37' E 134°59'510.5
2017-Dec-15 19:30N 34°34' E 134°53'611.4
2017-Dec-15 19:00N 34°32' E 134°47'611.6
2017-Dec-15 18:30N 34°30' E 134°40'611.9
2017-Dec-15 18:00N 34°28' E 134°34'1811.9
2017-Dec-15 16:29N 34°24' E 134°12'75 4.8
2017-Dec-15 00:54N 34°01' E 132°46'512.6
2017-Dec-15 00:31N 33°57' E 132°43'  
2017-Dec-12 17:25N 33°21' E 131°60'610.2
2017-Dec-12 16:52N 33°25' E 132°04'1910.6
2017-Dec-12 15:05N 33°39' E 132°20'111.2
2017-Dec-12 15:00N 33°40' E 132°20'1011.7
2017-Dec-12 14:10N 33°47' E 132°28'211.8
2017-Dec-12 14:00N 33°48' E 132°30'611.9
2017-Dec-12 13:30N 33°52' E 132°35'612.3
2017-Dec-12 13:00N 33°56' E 132°41'  
2017-Dec-08 10:49N 34°27' E 134°28'310.2
2017-Dec-08 10:30N 34°28' E 134°32'510.1
2017-Dec-08 10:00N 34°30' E 134°38'510.0
2017-Dec-08 09:30N 34°32' E 134°43'5 9.5
2017-Dec-08 09:00N 34°34' E 134°48'4 8.6
2017-Dec-08 08:30N 34°35' E 134°53'4 8.3
2017-Dec-08 08:00N 34°37' E 134°58'4 7.0
2017-Dec-08 07:30N 34°37' E 135°02'4 8.8
2017-Dec-08 07:00N 34°37' E 135°08'510.1
2017-Dec-08 06:30N 34°39' E 135°13'4 8.0
2017-Dec-08 06:00N 34°42' E 135°16'0 0.1
2017-Dec-08 05:30N 34°42' E 135°16'0 0.0
2017-Dec-08 05:00N 34°42' E 135°16'0 0.0
2017-Dec-08 04:30N 34°42' E 135°16'0 0.0
2017-Dec-08 04:00N 34°42' E 135°16'0 0.0
2017-Dec-08 03:30N 34°42' E 135°16'0 0.0
2017-Dec-08 03:00N 34°42' E 135°16'0 0.0
2017-Dec-08 02:30N 34°42' E 135°16'0 0.0
2017-Dec-08 02:00N 34°42' E 135°16'0 0.1
2017-Dec-08 01:30N 34°42' E 135°16'0 0.2
2017-Dec-08 01:01N 34°42' E 135°16'5 9.1
2017-Dec-08 00:30N 34°38' E 135°14'612.3
2017-Dec-08 00:00N 34°35' E 135°07'510.7
2017-Dec-07 23:30N 34°37' E 135°01'510.8
2017-Dec-07 23:00N 34°35' E 134°55'612.6
2017-Dec-07 22:30N 34°33' E 134°48'612.5
2017-Dec-07 22:00N 34°30' E 134°41'612.5
2017-Dec-07 21:30N 34°28' E 134°34'1912.5
2017-Dec-07 20:01N 34°25' E 134°12'7312.6
2017-Dec-07 14:11N 34°02' E 132°47'213.6
2017-Dec-07 14:00N 34°00' E 132°45'713.1
2017-Dec-07 13:30N 33°55' E 132°40'712.9
2017-Dec-07 12:57N 33°50' E 132°34'612.5
2017-Dec-07 12:28N 33°46' E 132°29'2712.8
2017-Dec-07 10:19N 33°26' E 132°06'412.5
2017-Dec-07 10:00N 33°24' E 132°03'28 3.4
2017-Dec-07 01:55N 33°13' E 132°33'0 0.0
2017-Dec-07 01:11N 33°13' E 132°33'0 0.0
2017-Dec-07 01:00N 33°13' E 132°33'0 0.0
2017-Dec-07 00:30N 33°13' E 132°33'0 0.0
2017-Dec-07 00:00N 33°13' E 132°33'0 0.0
2017-Dec-06 23:30N 33°13' E 132°33'0 0.0
2017-Dec-06 22:59N 33°13' E 132°33'0 0.0
2017-Dec-06 22:29N 33°13' E 132°33'0 0.0
2017-Dec-06 22:00N 33°13' E 132°33'0 0.0
2017-Dec-06 21:29N 33°13' E 132°33'0 0.0
2017-Dec-06 20:46N 33°13' E 132°33'  
Track history (hours):
 
Tides and Currents Weather Stations Pressure Air Temp Water Temp Dewpoint Dewpoint Depression Visibility Wind Speed Wind Dir Waves Ship Positions

Shinpo Maru

Last reported at 2017-Dec-16 07:52 UTC. Time now 2017-Dec-16 09:19 UTC.
Position N 34°26' E 134°23'.

Length 61 m; draft 4 m.

Type: Cargo ship. MMSI: 431005643.

Date/timePositionNaut miles runAvg speedWind from/ knotsBaromVisibWave heightAir tempDewpointWater temp
2017-Dec-16 07:52N 34°26' E 134°23'511.2
2017-Dec-16 07:26N 34°28' E 134°28'510.7
2017-Dec-16 07:00N 34°29' E 134°33'510.5
2017-Dec-16 06:30N 34°31' E 134°39'510.6
2017-Dec-16 06:00N 34°33' E 134°45'510.6
2017-Dec-16 05:30N 34°35' E 134°51'5 9.6
2017-Dec-16 05:00N 34°37' E 134°57'4 8.5
2017-Dec-16 04:30N 34°37' E 135°02'4 7.9
2017-Dec-16 04:00N 34°36' E 135°07'510.7
2017-Dec-16 03:30N 34°37' E 135°13'510.1
2017-Dec-16 03:00N 34°40' E 135°18'2 4.9
2017-Dec-16 02:30N 34°42' E 135°16'0 0.0
2017-Dec-16 02:00N 34°42' E 135°16'0 0.0
2017-Dec-16 01:30N 34°42' E 135°16'0 0.0
2017-Dec-16 01:00N 34°42' E 135°16'0 0.0
2017-Dec-16 00:30N 34°42' E 135°16'0 0.0
2017-Dec-16 00:00N 34°42' E 135°16'0 0.0
2017-Dec-15 23:30N 34°42' E 135°16'0 0.0
2017-Dec-15 23:00N 34°42' E 135°16'0 0.0
2017-Dec-15 22:30N 34°42' E 135°16'0 0.0
2017-Dec-15 22:00N 34°42' E 135°16'4 7.2
2017-Dec-15 21:30N 34°39' E 135°17'611.5
2017-Dec-15 21:00N 34°36' E 135°11'611.2
2017-Dec-15 20:30N 34°35' E 135°04'4 8.7
2017-Dec-15 20:00N 34°37' E 134°59'510.5
2017-Dec-15 19:30N 34°34' E 134°53'611.4
2017-Dec-15 19:00N 34°32' E 134°47'611.6
2017-Dec-15 18:30N 34°30' E 134°40'611.9
2017-Dec-15 18:00N 34°28' E 134°34'1811.9
2017-Dec-15 16:29N 34°24' E 134°12'75 4.8
2017-Dec-15 00:54N 34°01' E 132°46'512.6
2017-Dec-15 00:31N 33°57' E 132°43'  
2017-Dec-12 17:25N 33°21' E 131°60'610.2
2017-Dec-12 16:52N 33°25' E 132°04'1910.6
2017-Dec-12 15:05N 33°39' E 132°20'111.2
2017-Dec-12 15:00N 33°40' E 132°20'1011.7
2017-Dec-12 14:10N 33°47' E 132°28'211.8
2017-Dec-12 14:00N 33°48' E 132°30'611.9
2017-Dec-12 13:30N 33°52' E 132°35'612.3
2017-Dec-12 13:00N 33°56' E 132°41'  
2017-Dec-08 10:49N 34°27' E 134°28'310.2
2017-Dec-08 10:30N 34°28' E 134°32'510.1
2017-Dec-08 10:00N 34°30' E 134°38'510.0
2017-Dec-08 09:30N 34°32' E 134°43'5 9.5
2017-Dec-08 09:00N 34°34' E 134°48'4 8.6
2017-Dec-08 08:30N 34°35' E 134°53'4 8.3
2017-Dec-08 08:00N 34°37' E 134°58'4 7.0
2017-Dec-08 07:30N 34°37' E 135°02'4 8.8
2017-Dec-08 07:00N 34°37' E 135°08'510.1
2017-Dec-08 06:30N 34°39' E 135°13'4 8.0
2017-Dec-08 06:00N 34°42' E 135°16'0 0.1
2017-Dec-08 05:30N 34°42' E 135°16'0 0.0
2017-Dec-08 05:00N 34°42' E 135°16'0 0.0
2017-Dec-08 04:30N 34°42' E 135°16'0 0.0
2017-Dec-08 04:00N 34°42' E 135°16'0 0.0
2017-Dec-08 03:30N 34°42' E 135°16'0 0.0
2017-Dec-08 03:00N 34°42' E 135°16'0 0.0
2017-Dec-08 02:30N 34°42' E 135°16'0 0.0
2017-Dec-08 02:00N 34°42' E 135°16'0 0.1
2017-Dec-08 01:30N 34°42' E 135°16'0 0.2
2017-Dec-08 01:01N 34°42' E 135°16'5 9.1
2017-Dec-08 00:30N 34°38' E 135°14'612.3
2017-Dec-08 00:00N 34°35' E 135°07'510.7
2017-Dec-07 23:30N 34°37' E 135°01'510.8
2017-Dec-07 23:00N 34°35' E 134°55'612.6
2017-Dec-07 22:30N 34°33' E 134°48'612.5
2017-Dec-07 22:00N 34°30' E 134°41'612.5
2017-Dec-07 21:30N 34°28' E 134°34'1912.5
2017-Dec-07 20:01N 34°25' E 134°12'7312.6
2017-Dec-07 14:11N 34°02' E 132°47'213.6
2017-Dec-07 14:00N 34°00' E 132°45'713.1
2017-Dec-07 13:30N 33°55' E 132°40'712.9
2017-Dec-07 12:57N 33°50' E 132°34'612.5
2017-Dec-07 12:28N 33°46' E 132°29'2712.8
2017-Dec-07 10:19N 33°26' E 132°06'412.5
2017-Dec-07 10:00N 33°24' E 132°03'28 3.4
2017-Dec-07 01:55N 33°13' E 132°33'0 0.0
2017-Dec-07 01:11N 33°13' E 132°33'0 0.0
2017-Dec-07 01:00N 33°13' E 132°33'0 0.0
2017-Dec-07 00:30N 33°13' E 132°33'0 0.0
2017-Dec-07 00:00N 33°13' E 132°33'0 0.0
2017-Dec-06 23:30N 33°13' E 132°33'0 0.0
2017-Dec-06 22:59N 33°13' E 132°33'0 0.0
2017-Dec-06 22:29N 33°13' E 132°33'0 0.0
2017-Dec-06 22:00N 33°13' E 132°33'0 0.0
2017-Dec-06 21:29N 33°13' E 132°33'0 0.0
2017-Dec-06 20:46N 33°13' E 132°33'  

Dump ship's entire track history